Aviation Digital Data Service (ADDS)

Output produced by METARs form (1813 UTC 30 August 2014)
found at http://www.aviationweather.gov/adds/metars/
 
KDEN 301738Z 3018/3124 22009KT P6SM FEW150 SCT200 
     FM302000 19007KT P6SM FEW090 SCT150 BKN200 
     FM302200 17009KT P6SM SCT090 BKN140 
     TEMPO 3023/3102 VRB20G32KT -TSRA BKN090CB 
     FM310400 16009KT P6SM FEW090 BKN140 
     FM310700 20010KT P6SM SCT140 SCT200 
     FM312000 05009KT P6SM SCT080 BKN150 
     PROB30 3120/3124 VRB30G32KT -TSRA BKN080CB